Time;durP1;ratioP1;P1;durP2;ratioP2;P2;SDS_P1;SDS_P2;PMS_P1;PMS_P2;Temp;Humidity;BMP_temperature;BMP_pressure;BME280_temperature;BME280_humidity;BME280_pressure;Samples;Min_cycle;Max_cycle;Signal;HPM_P1;HPM_P2
2021/06/06 00:00:54;;;;;;;2.93;2.27;;;;;;;16.89;52.99;101497.34;5003290;28;20203;-66
2021/06/06 00:03:26;;;;;;;2.77;2.23;;;;;;;17.12;52.86;101546.13;5005080;28;20200;-66
2021/06/06 00:05:56;;;;;;;2.60;2.30;;;;;;;17.07;53.31;101547.34;5004875;28;20717;-66
2021/06/06 00:08:25;;;;;;;3.17;2.30;;;;;;;16.92;52.84;101524.22;5003125;28;20223;-66
2021/06/06 00:10:56;;;;;;;2.73;2.33;;;;;;;17.06;53.15;101547.50;5004586;28;20199;-67
2021/06/06 00:13:26;;;;;;;6.10;2.30;;;;;;;17.04;52.51;101542.19;5004757;28;20207;-66
2021/06/06 00:15:54;;;;;;;5.23;2.30;;;;;;;17.01;52.94;101538.88;5003889;28;20269;-66
2021/06/06 00:18:23;;;;;;;2.90;2.60;;;;;;;16.98;52.79;101545.41;5004148;28;20223;-66
2021/06/06 00:20:51;;;;;;;6.13;2.47;;;;;;;16.60;53.07;101486.13;5002766;28;20200;-66
2021/06/06 00:23:19;;;;;;;3.23;2.57;;;;;;;16.89;53.33;101548.88;5004690;28;20195;-67
2021/06/06 00:25:46;;;;;;;2.13;1.93;;;;;;;16.89;53.44;101550.75;5004756;28;20295;-67
2021/06/06 00:28:14;;;;;;;4.37;2.20;;;;;;;16.89;53.17;101546.16;5007956;28;20214;-68
2021/06/06 00:30:44;;;;;;;3.10;2.43;;;;;;;16.85;53.09;101544.69;5007137;28;20282;-67
2021/06/06 00:33:12;;;;;;;2.20;2.00;;;;;;;16.81;52.97;101545.03;5008449;28;20195;-67
2021/06/06 00:35:40;;;;;;;3.80;2.40;;;;;;;16.72;53.78;101554.81;5006048;28;20203;-68
2021/06/06 00:38:07;;;;;;;3.20;2.70;;;;;;;16.60;54.80;101550.34;5004635;28;20235;-69
2021/06/06 00:40:37;;;;;;;3.17;2.60;;;;;;;16.56;54.75;101557.88;5006183;28;20680;-68
2021/06/06 00:43:07;;;;;;;2.93;2.63;;;;;;;16.48;54.62;101552.16;5006938;28;20254;-68
2021/06/06 00:45:41;;;;;;;3.57;2.77;;;;;;;16.44;54.58;101551.56;5000040;28;20194;-68
2021/06/06 00:48:11;;;;;;;3.53;2.60;;;;;;;16.45;54.24;101564.13;5004291;28;20607;-68
2021/06/06 00:50:42;;;;;;;5.30;2.37;;;;;;;16.43;54.47;101560.66;5007113;28;20272;-68
2021/06/06 00:53:15;;;;;;;6.43;3.50;;;;;;;16.42;54.94;101563.50;5019217;28;20601;-67
2021/06/06 00:55:43;;;;;;;5.63;2.63;;;;;;;16.36;55.51;101555.88;5007940;28;20674;-68
2021/06/06 00:58:13;;;;;;;5.37;2.73;;;;;;;16.27;55.66;101557.47;5006306;28;20825;-68
2021/06/06 01:00:43;;;;;;;5.27;2.80;;;;;;;16.18;56.13;101562.72;5001954;28;20203;-67
2021/06/06 01:03:13;;;;;;;3.47;2.93;;;;;;;16.15;55.42;101561.13;5009727;28;20682;-68
2021/06/06 01:05:46;;;;;;;6.23;2.70;;;;;;;16.07;55.42;101559.00;5004741;28;20584;-67
2021/06/06 01:08:17;;;;;;;4.17;2.60;;;;;;;16.06;55.78;101562.69;4998542;28;20693;-66
2021/06/06 01:10:50;;;;;;;9.43;2.73;;;;;;;16.02;55.53;101568.47;5002150;28;20692;-66
2021/06/06 01:13:21;;;;;;;4.43;2.87;;;;;;;15.97;56.05;101567.97;5005530;28;20218;-66
2021/06/06 01:16:00;;;;;;;3.40;2.83;;;;;;;15.94;55.88;101568.22;5006854;28;20199;-66
2021/06/06 01:18:36;;;;;;;4.33;2.77;;;;;;;15.80;56.22;101566.56;5020233;28;20318;-66
2021/06/06 01:21:21;;;;;;;3.43;2.83;;;;;;;15.81;56.56;101563.72;5005990;28;20233;-66
2021/06/06 01:24:09;;;;;;;7.10;2.90;;;;;;;15.75;56.89;101564.19;5001472;28;20716;-66
2021/06/06 01:26:42;;;;;;;5.10;2.80;;;;;;;15.69;56.27;101563.81;5022792;28;20329;-66
2021/06/06 01:29:22;;;;;;;2.60;2.27;;;;;;;15.61;56.79;101577.03;5008621;28;20254;-66
2021/06/06 01:31:55;;;;;;;3.27;2.43;;;;;;;15.58;56.61;101567.31;5008710;28;20210;-66
2021/06/06 01:34:26;;;;;;;5.43;2.70;;;;;;;15.58;56.53;101570.00;5009375;28;20213;-66
2021/06/06 01:36:59;;;;;;;5.23;2.40;;;;;;;15.59;56.20;101574.44;5005816;28;20213;-65
2021/06/06 01:39:34;;;;;;;2.87;2.50;;;;;;;15.57;56.33;101570.97;5004501;28;20214;-66
2021/06/06 01:42:09;;;;;;;4.37;2.53;;;;;;;15.41;57.47;101560.44;5017684;28;20235;-65
2021/06/06 01:44:40;;;;;;;2.97;2.33;;;;;;;15.35;57.49;101562.75;5006888;28;20206;-65
2021/06/06 01:47:12;;;;;;;3.00;2.70;;;;;;;15.31;57.91;101558.53;5005623;28;20589;-65
2021/06/06 01:49:45;;;;;;;6.10;3.00;;;;;;;15.29;58.15;101571.28;5003729;28;20230;-66
2021/06/06 01:52:20;;;;;;;3.87;2.87;;;;;;;15.13;57.60;101549.94;5004394;28;20206;-66
2021/06/06 01:54:51;;;;;;;3.57;2.70;;;;;;;15.07;57.71;101540.44;5002141;28;20795;-65
2021/06/06 01:57:22;;;;;;;3.00;2.60;;;;;;;15.15;58.28;101565.06;5018719;28;20211;-65
2021/06/06 01:59:59;;;;;;;4.03;2.93;;;;;;;15.09;58.11;101565.53;5007981;28;20230;-65
2021/06/06 02:02:32;;;;;;;3.60;2.77;;;;;;;14.99;58.96;101563.59;5009376;28;20210;-65
2021/06/06 02:05:06;;;;;;;2.97;2.47;;;;;;;14.95;59.11;101560.25;5002215;28;20219;-65
2021/06/06 02:07:37;;;;;;;22.00;3.20;;;;;;;14.87;59.31;101557.25;5003955;28;20195;-65
2021/06/06 02:10:20;;;;;;;2.77;2.33;;;;;;;14.90;59.32;101559.72;5017987;28;20213;-65
2021/06/06 02:12:52;;;;;;;3.50;3.07;;;;;;;14.87;59.01;101560.81;5005241;28;20259;-66
2021/06/06 02:15:26;;;;;;;4.57;3.10;;;;;;;14.90;58.71;101562.44;5007879;28;20241;-65
2021/06/06 02:18:10;;;;;;;4.10;3.00;;;;;;;14.90;58.49;101559.72;5009627;28;20302;-66
2021/06/06 02:20:40;;;;;;;3.97;2.70;;;;;;;14.93;58.74;101559.50;5002985;28;20222;-65
2021/06/06 02:23:09;;;;;;;3.33;2.70;;;;;;;14.95;58.76;101552.13;5004083;28;20203;-66
2021/06/06 02:25:42;;;;;;;3.60;2.83;;;;;;;14.84;58.49;101523.19;5003528;28;20652;-66
2021/06/06 02:28:25;;;;;;;5.03;3.63;;;;;;;15.11;57.90;101557.31;5004344;28;20206;-66
2021/06/06 02:31:03;;;;;;;4.50;3.03;;;;;;;15.22;58.71;101544.69;5004344;28;20214;-66
2021/06/06 02:33:35;;;;;;;5.13;3.00;;;;;;;15.43;59.03;101547.66;5006070;28;20268;-66
2021/06/06 02:36:19;;;;;;;5.43;2.93;;;;;;;15.70;59.65;101527.63;5006670;28;20243;-66
2021/06/06 02:38:51;;;;;;;4.77;3.13;;;;;;;15.87;59.56;101513.63;5009902;28;20210;-66
2021/06/06 02:41:37;;;;;;;4.10;2.90;;;;;;;16.35;59.05;101540.56;5006834;28;20196;-66
2021/06/06 02:44:09;;;;;;;5.37;3.10;;;;;;;16.58;58.05;101533.34;5005578;28;20198;-66
2021/06/06 02:46:45;;;;;;;8.40;2.83;;;;;;;16.97;58.13;101543.69;5019193;28;20203;-66
2021/06/06 02:49:22;;;;;;;3.67;3.00;;;;;;;17.29;57.83;101545.59;5019320;28;20290;-66
2021/06/06 02:51:57;;;;;;;4.30;2.80;;;;;;;17.62;57.24;101545.47;5004405;28;20266;-66
2021/06/06 02:54:37;;;;;;;7.10;3.00;;;;;;;17.89;56.59;101530.56;5007624;28;20203;-65
2021/06/06 02:57:17;;;;;;;6.07;3.13;;;;;;;18.43;55.33;101533.06;5007235;28;20294;-67
2021/06/06 02:59:54;;;;;;;4.23;2.77;;;;;;;18.60;54.44;101534.28;5005604;28;20250;-67
2021/06/06 03:02:26;;;;;;;3.27;2.97;;;;;;;18.63;54.25;101534.03;5020128;28;20204;-67
2021/06/06 03:04:59;;;;;;;4.67;3.23;;;;;;;18.56;54.35;101521.94;5001720;28;20226;-67
2021/06/06 03:07:33;;;;;;;4.17;3.10;;;;;;;18.63;54.76;101544.06;5007431;28;20269;-67
2021/06/06 03:10:07;;;;;;;5.70;2.90;;;;;;;18.63;54.67;101525.88;5006577;28;20231;-67
2021/06/06 03:12:40;;;;;;;3.57;2.97;;;;;;;18.59;55.09;101530.69;5006515;28;20213;-68
2021/06/06 03:15:12;;;;;;;3.23;2.83;;;;;;;18.43;54.22;101495.00;5007939;28;20215;-67
2021/06/06 03:17:47;;;;;;;5.40;3.30;;;;;;;18.54;54.40;101532.09;5007417;28;20562;-67
2021/06/06 03:20:19;;;;;;;4.37;3.33;;;;;;;18.39;54.79;101518.03;5006097;28;20762;-67
2021/06/06 03:22:49;;;;;;;6.23;3.10;;;;;;;18.29;55.57;101525.25;5004486;28;20215;-67
2021/06/06 03:25:41;;;;;;;4.13;2.97;;;;;;;18.26;56.24;101525.50;5016698;28;20203;-68
2021/06/06 03:28:14;;;;;;;4.20;3.50;;;;;;;18.26;56.63;101525.50;4996898;28;20215;-67
2021/06/06 03:30:45;;;;;;;4.83;3.30;;;;;;;18.10;57.14;101492.53;5005452;28;20250;-67
2021/06/06 03:33:39;;;;;;;4.10;2.93;;;;;;;18.46;57.14;101523.78;5005127;28;20203;-67
2021/06/06 03:36:08;;;;;;;3.43;3.00;;;;;;;18.48;56.44;101527.22;5008283;28;20210;-67
2021/06/06 03:38:37;;;;;;;3.57;2.90;;;;;;;18.41;56.65;101526.03;5009206;28;20205;-68
2021/06/06 03:41:05;;;;;;;3.57;3.27;;;;;;;18.40;56.90;101522.47;5006660;28;20222;-67
2021/06/06 03:43:40;;;;;;;4.80;3.63;;;;;;;18.35;56.74;101532.00;5010268;28;20195;-67
2021/06/06 03:46:08;;;;;;;4.43;3.40;;;;;;;18.21;56.97;101523.19;5014905;28;20195;-68
2021/06/06 03:48:37;;;;;;;4.97;3.30;;;;;;;18.12;57.08;101532.16;4995443;28;20265;-67
2021/06/06 03:51:07;;;;;;;4.33;3.23;;;;;;;17.98;58.01;101529.78;5008663;28;20230;-67
2021/06/06 03:53:37;;;;;;;4.40;3.53;;;;;;;18.03;57.56;101532.94;5008733;28;20203;-67
2021/06/06 03:56:06;;;;;;;3.67;2.90;;;;;;;18.04;57.98;101529.22;5003269;28;20200;-67
2021/06/06 03:58:35;;;;;;;5.00;3.47;;;;;;;18.12;58.17;101526.72;5006934;28;20230;-67
2021/06/06 04:01:05;;;;;;;4.83;3.40;;;;;;;18.15;57.94;101526.47;5008735;28;20241;-67
2021/06/06 04:03:34;;;;;;;4.53;3.73;;;;;;;18.19;57.55;101527.06;5003876;28;20242;-67
2021/06/06 04:06:04;;;;;;;4.60;3.40;;;;;;;18.14;58.35;101527.47;5009720;28;20825;-66
2021/06/06 04:08:39;;;;;;;3.93;3.30;;;;;;;18.05;58.36;101511.06;5006035;28;20282;-66
2021/06/06 04:11:12;;;;;;;4.53;3.33;;;;;;;18.15;59.36;101528.31;5021245;28;20199;-68
2021/06/06 04:13:46;;;;;;;7.63;4.23;;;;;;;18.11;59.42;101519.56;5015137;28;20215;-68
2021/06/06 04:16:17;;;;;;;3.63;3.23;;;;;;;18.19;59.96;101527.91;5006126;28;20212;-68
2021/06/06 04:18:46;;;;;;;7.73;3.60;;;;;;;18.25;60.00;101523.78;5007497;28;20207;-67
2021/06/06 04:21:21;;;;;;;3.43;3.13;;;;;;;18.29;59.23;101525.25;5006779;28;20219;-68
2021/06/06 04:23:49;;;;;;;3.93;3.40;;;;;;;18.18;59.60;101507.16;5006996;28;20634;-67
2021/06/06 04:26:18;;;;;;;5.53;3.33;;;;;;;18.31;59.66;101521.38;4994548;28;20241;-68
2021/06/06 04:28:49;;;;;;;4.60;3.33;;;;;;;18.43;59.12;101524.91;5007507;28;20216;-68
2021/06/06 04:31:25;;;;;;;3.87;3.47;;;;;;;18.53;59.35;101523.09;5002206;28;20196;-68
2021/06/06 04:33:53;;;;;;;4.23;3.33;;;;;;;18.63;59.16;101531.31;5006257;28;20203;-67
2021/06/06 04:36:22;;;;;;;4.03;3.30;;;;;;;18.74;59.09;101528.50;5005480;28;20211;-67
2021/06/06 04:38:52;;;;;;;3.40;3.10;;;;;;;18.82;59.47;101523.22;5004675;28;20270;-68
2021/06/06 04:41:26;;;;;;;4.43;3.40;;;;;;;18.88;59.64;101530.84;5005809;28;20227;-67
2021/06/06 04:43:55;;;;;;;4.27;3.30;;;;;;;18.92;60.42;101525.97;5007688;28;20205;-68
2021/06/06 04:46:25;;;;;;;4.33;3.30;;;;;;;19.02;59.84;101526.88;5006916;28;20198;-68
2021/06/06 04:48:54;;;;;;;7.30;3.33;;;;;;;19.10;59.06;101507.97;5012100;28;20293;-68
2021/06/06 04:51:25;;;;;;;3.93;3.40;;;;;;;19.11;59.17;101489.78;5009992;28;20203;-68
2021/06/06 04:54:03;;;;;;;4.83;3.40;;;;;;;19.50;59.40;101515.19;5026244;28;20214;-68
2021/06/06 04:56:33;;;;;;;4.67;3.30;;;;;;;19.69;59.26;101522.56;5024746;28;20214;-68
2021/06/06 04:59:04;;;;;;;3.53;3.00;;;;;;;19.92;59.50;101523.97;5010030;28;20273;-68
2021/06/06 05:01:34;;;;;;;6.00;3.17;;;;;;;20.14;58.80;101520.91;5010892;28;20231;-68
2021/06/06 05:04:08;;;;;;;3.40;2.97;;;;;;;20.48;58.13;101527.72;5005589;28;20206;-68
2021/06/06 05:06:37;;;;;;;7.00;3.10;;;;;;;20.78;56.88;101527.47;5020894;28;20601;-68
2021/06/06 05:09:08;;;;;;;3.30;3.00;;;;;;;21.12;56.65;101522.25;5010118;28;20723;-68
2021/06/06 05:11:39;;;;;;;4.30;3.30;;;;;;;21.30;54.85;101525.06;5002150;28;20608;-67
2021/06/06 05:14:09;;;;;;;3.93;3.20;;;;;;;21.48;53.76;101519.63;5006736;28;20211;-66
2021/06/06 05:16:40;;;;;;;3.40;3.07;;;;;;;21.70;54.02;101521.84;5003113;28;20262;-65
2021/06/06 05:19:09;;;;;;;4.67;3.00;;;;;;;21.70;53.58;101502.72;5008441;28;20433;-66
2021/06/06 05:21:39;;;;;;;3.03;2.70;;;;;;;21.93;52.44;101523.09;5003136;28;20215;-65
2021/06/06 05:24:08;;;;;;;3.73;2.93;;;;;;;22.08;52.21;101519.81;5009523;28;20297;-65
2021/06/06 05:26:36;;;;;;;3.40;2.50;;;;;;;22.32;51.48;101517.22;5004052;28;20251;-66
2021/06/06 05:29:05;;;;;;;3.07;2.77;;;;;;;22.51;50.66;101517.03;5006530;28;20235;-67
2021/06/06 05:31:33;;;;;;;3.20;2.70;;;;;;;22.68;50.21;101519.84;5004127;28;20262;-66
2021/06/06 05:34:03;;;;;;;3.10;2.80;;;;;;;22.79;50.38;101512.19;4996205;28;20210;-66
2021/06/06 05:36:31;;;;;;;5.53;2.87;;;;;;;22.78;50.61;101509.63;5006895;28;20226;-67
2021/06/06 05:38:58;;;;;;;4.33;3.00;;;;;;;22.68;50.64;101509.75;4999830;28;20204;-66
2021/06/06 05:41:26;;;;;;;3.30;3.00;;;;;;;22.65;50.96;101520.16;4999784;28;20653;-68
2021/06/06 05:43:54;;;;;;;3.23;2.70;;;;;;;22.55;51.05;101518.41;5009245;28;20299;-67
2021/06/06 05:46:22;;;;;;;4.63;3.00;;;;;;;22.69;50.42;101518.84;5009888;28;20965;-66
2021/06/06 05:48:50;;;;;;;3.20;2.90;;;;;;;22.90;50.22;101511.06;5010864;28;20682;-67
2021/06/06 05:51:20;;;;;;;3.47;2.70;;;;;;;23.08;50.44;101525.53;5009322;28;20319;-67
2021/06/06 05:53:53;;;;;;;4.53;3.13;;;;;;;22.96;51.03;101513.16;4998507;28;20585;-67
2021/06/06 05:56:20;;;;;;;3.20;2.90;;;;;;;22.89;51.16;101515.69;5011575;28;20207;-67
2021/06/06 05:58:49;;;;;;;4.27;3.27;;;;;;;22.86;50.92;101499.59;5007481;28;20199;-67
2021/06/06 06:01:18;;;;;;;3.33;3.03;;;;;;;23.04;50.92;101524.16;5011816;28;20234;-67
2021/06/06 06:03:46;;;;;;;2.93;2.60;;;;;;;23.22;50.30;101522.13;5007229;28;20208;-66
2021/06/06 06:06:14;;;;;;;9.13;2.73;;;;;;;23.47;49.30;101519.44;5006880;28;20211;-67
2021/06/06 06:08:46;;;;;;;3.93;2.90;;;;;;;23.67;48.57;101512.66;5004566;28;20279;-68
2021/06/06 06:11:16;;;;;;;6.47;3.20;;;;;;;23.92;48.43;101521.75;5003005;28;20207;-67
2021/06/06 06:13:45;;;;;;;5.00;3.53;;;;;;;24.00;48.44;101491.56;4997581;28;20274;-67
2021/06/06 06:16:40;;;;;;;3.00;2.70;;;;;;;24.38;48.01;101520.19;4999215;28;20555;-67
2021/06/06 06:19:09;;;;;;;4.10;3.00;;;;;;;24.27;46.88;101517.78;4996570;28;20196;-67
2021/06/06 06:21:39;;;;;;;3.57;3.10;;;;;;;24.38;46.91;101519.31;5010601;28;20211;-67
2021/06/06 06:24:09;;;;;;;3.37;3.07;;;;;;;24.44;46.54;101475.53;5019398;28;20699;-67
2021/06/06 06:26:37;;;;;;;4.53;2.83;;;;;;;25.01;46.50;101530.28;5005728;28;20258;-67
2021/06/06 06:29:11;;;;;;;4.47;2.70;;;;;;;25.27;46.37;101527.25;5025580;28;20269;-67
2021/06/06 06:32:02;;;;;;;6.47;2.95;;;;;;;25.54;44.33;101525.88;4987691;28;20310;-68
2021/06/06 06:34:37;;;;;;;3.25;2.95;;;;;;;25.80;44.43;101539.31;5005743;28;20753;-68
2021/06/06 06:37:06;;;;;;;4.33;3.13;;;;;;;25.94;43.90;101540.38;5008763;28;20227;-68
2021/06/06 06:39:36;;;;;;;3.75;2.65;;;;;;;26.05;44.27;101545.47;5008484;28;20206;-68
2021/06/06 06:42:04;;;;;;;3.78;3.40;;;;;;;26.03;44.28;101544.81;5006873;28;20238;-69
2021/06/06 06:44:32;;;;;;;3.63;3.33;;;;;;;25.96;44.63;101543.81;5007682;28;20926;-67
2021/06/06 06:47:28;;;;;;;3.20;2.80;;;;;;;25.90;44.58;101545.41;4996973;28;20196;-66
2021/06/06 06:49:57;;;;;;;4.35;3.47;;;;;;;25.98;44.44;101547.22;5007407;28;20542;-67
2021/06/06 06:52:25;;;;;;;3.20;2.90;;;;;;;25.88;44.61;101541.13;5008665;28;20202;-67
2021/06/06 06:54:57;;;;;;;3.15;2.85;;;;;;;25.98;45.31;101549.97;5006795;28;20575;-67
2021/06/06 06:57:25;;;;;;;3.30;3.00;;;;;;;26.15;44.98;101542.44;5006191;28;20555;-67
2021/06/06 06:59:52;;;;;;;3.08;2.78;;;;;;;26.40;44.97;101546.72;5006464;28;20574;-67
2021/06/06 07:02:20;;;;;;;3.28;2.97;;;;;;;26.68;44.96;101538.66;5008239;28;20225;-67
2021/06/06 07:04:48;;;;;;;3.00;2.80;;;;;;;26.62;43.58;101542.16;5006212;28;20203;-68
2021/06/06 07:07:15;;;;;;;4.50;3.55;;;;;;;26.81;42.88;101527.81;5007109;28;20590;-68
2021/06/06 07:09:43;;;;;;;6.35;3.00;;;;;;;26.97;42.28;101528.66;5007060;28;20582;-68
2021/06/06 07:12:12;;;;;;;3.20;2.90;;;;;;;27.38;41.52;101540.88;5008109;28;20202;-67
2021/06/06 07:14:40;;;;;;;5.57;2.90;;;;;;;27.32;40.51;101533.38;5003201;28;20709;-66
2021/06/06 07:17:08;;;;;;;3.28;2.75;;;;;;;27.45;40.18;101536.28;5004632;28;21132;-66
2021/06/06 07:19:36;;;;;;;3.00;2.80;;;;;;;27.57;39.49;101533.88;5003967;28;20254;-66
2021/06/06 07:22:05;;;;;;;4.47;3.13;;;;;;;27.65;39.95;101531.00;5004836;28;20215;-67
2021/06/06 07:24:33;;;;;;;2.85;2.65;;;;;;;27.74;39.96;101531.72;5004056;28;20201;-67
2021/06/06 07:27:01;;;;;;;3.13;2.83;;;;;;;28.03;39.61;101534.34;5005614;28;20223;-67
2021/06/06 07:29:32;;;;;;;4.60;2.90;;;;;;;28.12;39.57;101529.50;5004793;28;20218;-67
2021/06/06 07:32:05;;;;;;;3.40;2.90;;;;;;;28.45;39.50;101516.81;5002869;28;20673;-67
2021/06/06 07:34:33;;;;;;;3.42;3.13;;;;;;;28.83;38.98;101529.41;5001967;28;20238;-67
2021/06/06 07:37:06;;;;;;;5.60;3.45;;;;;;;29.06;38.60;101529.97;5001852;28;20195;-68
2021/06/06 07:39:34;;;;;;;3.45;2.83;;;;;;;29.34;38.04;101538.16;5006513;28;20210;-68
2021/06/06 07:42:03;;;;;;;3.15;2.83;;;;;;;29.81;37.89;101548.31;5004238;28;20223;-67
2021/06/06 07:44:36;;;;;;;2.80;2.60;;;;;;;30.15;36.57;101547.31;5005652;28;20195;-67
2021/06/06 07:47:06;;;;;;;2.70;2.50;;;;;;;30.49;35.92;101537.91;5005132;28;20200;-68
2021/06/06 07:49:34;;;;;;;3.03;2.80;;;;;;;30.63;35.82;101549.03;5004822;28;20211;-68
2021/06/06 07:52:03;;;;;;;3.13;2.83;;;;;;;30.83;35.53;101560.91;5002174;28;20425;-68
2021/06/06 07:54:31;;;;;;;3.22;2.92;;;;;;;30.82;34.60;101542.56;5005134;28;20675;-69
2021/06/06 07:57:00;;;;;;;3.30;3.00;;;;;;;30.58;34.22;101547.69;5005473;28;20196;-68
2021/06/06 07:59:28;;;;;;;2.72;2.53;;;;;;;30.45;34.74;101544.94;5004644;28;20211;-68
2021/06/06 08:01:57;;;;;;;2.92;2.72;;;;;;;30.98;34.12;101544.84;5005311;28;20690;-68
2021/06/06 08:04:26;;;;;;;2.70;2.50;;;;;;;31.10;33.65;101525.59;5002524;28;20313;-68
2021/06/06 08:06:54;;;;;;;3.78;3.00;;;;;;;30.91;35.01;101552.34;5006440;28;20277;-66
2021/06/06 08:09:21;;;;;;;4.15;3.05;;;;;;;31.39;34.19;101551.97;5006283;28;20195;-68
2021/06/06 08:11:49;;;;;;;3.10;2.90;;;;;;;31.73;33.34;101546.03;5005960;28;20231;-68
2021/06/06 08:14:17;;;;;;;3.25;2.90;;;;;;;31.87;33.63;101545.94;5004737;28;20230;-68
2021/06/06 08:16:45;;;;;;;4.90;2.90;;;;;;;32.00;33.43;101549.47;5005580;28;20393;-68
2021/06/06 08:19:14;;;;;;;3.58;3.28;;;;;;;32.24;32.85;101552.47;5002148;28;20412;-68
2021/06/06 08:21:45;;;;;;;2.72;2.53;;;;;;;32.13;32.68;101512.34;5007594;28;20218;-68
2021/06/06 08:24:13;;;;;;;3.88;3.00;;;;;;;32.59;32.42;101542.53;5004997;28;20564;-66
2021/06/06 08:26:41;;;;;;;3.53;3.22;;;;;;;32.20;32.97;101546.53;5002073;28;20282;-66
2021/06/06 08:29:10;;;;;;;3.80;3.50;;;;;;;32.61;32.43;101550.66;5004565;28;20222;-66
2021/06/06 08:31:41;;;;;;;3.83;3.20;;;;;;;32.87;32.30;101546.78;5003877;28;20282;-67
2021/06/06 08:34:10;;;;;;;5.88;2.95;;;;;;;32.72;31.98;101549.88;5005905;28;20191;-67
2021/06/06 08:36:41;;;;;;;3.30;3.00;;;;;;;33.08;31.41;101539.88;5006517;28;20694;-66
2021/06/06 08:39:12;;;;;;;4.35;3.33;;;;;;;33.17;31.46;101524.56;5004451;28;20209;-66
2021/06/06 08:41:50;;;;;;;4.53;2.70;;;;;;;32.85;31.29;101554.50;5005494;28;20336;-71
2021/06/06 08:44:23;;;;;;;4.85;3.60;;;;;;;32.84;31.65;101536.94;4994082;28;20667;-71
2021/06/06 08:47:00;;;;;;;3.55;3.25;;;;;;;32.55;31.62;101543.22;5006248;28;20225;-71
2021/06/06 08:49:40;;;;;;;6.60;3.72;;;;;;;32.38;31.74;101540.19;5007989;28;20207;-71
2021/06/06 08:52:22;;;;;;;3.67;3.38;;;;;;;31.34;31.48;101524.00;5001616;28;20203;-71
2021/06/06 08:54:57;;;;;;;4.35;3.80;;;;;;;31.78;32.77;101543.41;4994960;28;20209;-71
2021/06/06 08:57:32;;;;;;;3.70;3.40;;;;;;;31.71;33.39;101547.31;5001760;28;20203;-71
2021/06/06 09:00:01;;;;;;;3.95;3.45;;;;;;;31.35;33.30;101536.81;5009782;28;20201;-71
2021/06/06 09:02:34;;;;;;;5.10;3.67;;;;;;;30.81;33.48;101521.44;5003975;28;20215;-71
2021/06/06 09:05:05;;;;;;;4.93;3.63;;;;;;;31.05;33.89;101554.00;5007103;28;20199;-70
2021/06/06 09:07:38;;;;;;;3.20;3.00;;;;;;;30.73;33.59;101560.50;5004626;28;20203;-71
2021/06/06 09:10:09;;;;;;;3.58;3.25;;;;;;;30.86;34.05;101552.13;5004950;28;20646;-71
2021/06/06 09:12:38;;;;;;;3.35;3.05;;;;;;;31.00;34.10;101555.75;5003849;28;20596;-71
2021/06/06 09:15:08;;;;;;;9.00;3.33;;;;;;;30.63;33.66;101560.97;5006116;28;20207;-71
2021/06/06 09:17:40;;;;;;;4.38;3.58;;;;;;;30.77;34.06;101561.78;5003917;28;20207;-71
2021/06/06 09:20:23;;;;;;;3.70;3.40;;;;;;;30.75;33.68;101548.13;5006120;28;20208;-71
2021/06/06 09:23:02;;;;;;;3.47;3.17;;;;;;;30.04;33.87;101544.34;5004242;28;20222;-70
2021/06/06 09:25:34;;;;;;;4.18;3.10;;;;;;;29.94;33.96;101551.09;5003699;28;20207;-71
2021/06/06 09:28:05;;;;;;;4.45;3.40;;;;;;;29.93;34.62;101551.31;5005009;28;20273;-66
2021/06/06 09:30:35;;;;;;;4.78;3.40;;;;;;;30.50;34.27;101547.94;5005732;28;20573;-65
2021/06/06 09:33:06;;;;;;;3.85;3.47;;;;;;;30.34;34.77;101540.06;4999939;28;20672;-65
2021/06/06 09:35:37;;;;;;;4.78;3.35;;;;;;;31.18;34.06;101553.97;5010509;28;20211;-66
2021/06/06 09:38:14;;;;;;;4.05;3.63;;;;;;;31.63;33.77;101555.91;5011096;28;20227;-66
2021/06/06 09:40:44;;;;;;;9.40;3.60;;;;;;;31.65;33.41;101543.47;4999591;28;20599;-65
2021/06/06 09:43:23;;;;;;;4.00;3.42;;;;;;;31.29;34.19;101543.28;5008832;28;20758;-66
2021/06/06 09:45:51;;;;;;;4.05;3.65;;;;;;;31.44;34.58;101541.03;5016840;28;20306;-71
2021/06/06 09:48:26;;;;;;;4.00;3.58;;;;;;;31.06;34.84;101550.16;5008053;28;20187;-65
2021/06/06 09:51:11;;;;;;;4.30;3.90;;;;;;;30.43;36.58;101529.59;5008032;28;20498;-65
2021/06/06 09:53:41;;;;;;;6.82;3.65;;;;;;;30.19;36.92;101543.03;5007231;28;20743;-65
2021/06/06 09:56:15;;;;;;;4.43;3.70;;;;;;;30.21;35.89;101540.91;5012517;28;20696;-65
2021/06/06 09:58:43;;;;;;;4.45;3.65;;;;;;;30.12;37.59;101541.34;5005415;28;20206;-66
2021/06/06 10:01:25;;;;;;;4.82;3.55;;;;;;;30.47;38.27;101537.25;5008433;28;20773;-66
2021/06/06 10:03:56;;;;;;;3.83;3.42;;;;;;;29.94;37.33;101539.16;5008333;28;20203;-66
2021/06/06 10:06:36;;;;;;;4.45;3.70;;;;;;;29.60;37.45;101524.41;5008545;28;20245;-66
2021/06/06 10:09:11;;;;;;;4.50;4.10;;;;;;;29.47;37.58;101529.94;5002599;28;20234;-66
2021/06/06 10:11:57;;;;;;;4.05;3.42;;;;;;;29.13;36.42;101519.78;5004572;28;20199;-66
2021/06/06 10:14:28;;;;;;;3.40;3.10;;;;;;;29.12;37.43;101528.31;5003790;28;20701;-71
2021/06/06 10:17:00;;;;;;;3.78;3.28;;;;;;;29.55;37.99;101526.97;5007824;28;20245;-71
2021/06/06 10:19:32;;;;;;;3.83;3.40;;;;;;;29.99;37.13;101528.28;5007016;28;20211;-71
2021/06/06 10:22:05;;;;;;;4.13;3.72;;;;;;;29.84;37.71;101528.50;5009911;28;20733;-71
2021/06/06 10:24:39;;;;;;;4.47;3.50;;;;;;;29.25;37.35;101520.88;5008350;28;20206;-70
2021/06/06 10:27:11;;;;;;;3.85;3.40;;;;;;;29.24;38.01;101516.41;5007516;28;20238;-71
2021/06/06 10:29:44;;;;;;;3.92;3.45;;;;;;;28.82;37.26;101516.63;5008756;28;20222;-70
2021/06/06 10:32:16;;;;;;;3.65;3.25;;;;;;;28.90;38.10;101520.13;5008796;28;20203;-71
2021/06/06 10:34:48;;;;;;;3.67;3.38;;;;;;;28.77;38.64;101520.00;5004081;28;20554;-71
2021/06/06 10:37:16;;;;;;;3.90;3.40;;;;;;;28.63;38.31;101516.31;5004025;28;20201;-71
2021/06/06 10:39:57;;;;;;;3.65;3.25;;;;;;;28.65;38.80;101522.50;5005495;28;20199;-71
2021/06/06 10:42:31;;;;;;;4.40;3.67;;;;;;;28.49;38.60;101522.84;5002223;28;20219;-71
2021/06/06 10:45:06;;;;;;;3.72;3.42;;;;;;;28.62;38.69;101528.44;5006854;28;20661;-71
2021/06/06 10:47:42;;;;;;;3.70;3.35;;;;;;;28.41;39.08;101520.19;5001821;28;20199;-71
2021/06/06 10:50:29;;;;;;;11.95;3.40;;;;;;;28.39;39.26;101519.56;5004914;28;20675;-70
2021/06/06 10:53:08;;;;;;;5.03;3.50;;;;;;;28.17;40.02;101498.53;5005779;28;20191;-70
2021/06/06 10:55:52;;;;;;;4.80;3.50;;;;;;;28.32;36.98;101522.28;5005424;28;20251;-71
2021/06/06 10:58:33;;;;;;;4.15;3.38;;;;;;;27.92;37.74;101523.84;5004923;28;20208;-70
2021/06/06 11:01:05;;;;;;;3.78;3.47;;;;;;;27.63;38.42;101529.50;5006605;28;20206;-71
2021/06/06 11:03:35;;;;;;;13.27;3.70;;;;;;;27.49;38.48;101515.50;5007874;28;20227;-70
2021/06/06 11:06:07;;;;;;;3.10;2.90;;;;;;;27.18;38.38;101524.06;5004143;28;20195;-70
2021/06/06 11:08:40;;;;;;;8.40;3.75;;;;;;;27.33;38.20;101521.28;5006555;28;20513;-70
2021/06/06 11:11:26;;;;;;;4.32;3.55;;;;;;;27.23;37.43;101490.38;5003901;28;20203;-70
2021/06/06 11:13:58;;;;;;;3.10;2.90;;;;;;;27.39;38.79;101528.78;5004712;28;20368;-69
2021/06/06 11:16:36;;;;;;;4.47;3.42;;;;;;;27.05;37.16;101531.34;5007144;28;20250;-69
2021/06/06 11:19:12;;;;;;;4.43;2.88;;;;;;;27.11;36.50;101525.03;5003531;28;20203;-70
2021/06/06 11:21:51;;;;;;;3.33;2.90;;;;;;;26.82;36.08;101518.47;5006368;28;20199;-70
2021/06/06 11:24:31;;;;;;;3.38;2.60;;;;;;;26.63;36.58;101524.56;4997232;28;20573;-69
2021/06/06 11:27:05;;;;;;;4.72;3.05;;;;;;;26.55;38.07;101528.28;5007063;28;20509;-70
2021/06/06 11:29:44;;;;;;;2.85;2.58;;;;;;;26.46;36.42;101518.41;5002106;28;20194;-69
2021/06/06 11:32:23;;;;;;;4.28;2.60;;;;;;;26.36;35.17;101522.47;5015205;28;20202;-70
2021/06/06 11:35:22;;;;;;;3.03;2.63;;;;;;;26.22;35.01;101527.72;5005677;28;20238;-70
2021/06/06 11:37:52;;;;;;;7.28;2.42;;;;;;;26.10;35.50;101511.84;5003352;28;20223;-69
2021/06/06 11:40:37;;;;;;;3.30;2.60;;;;;;;26.02;35.62;101514.66;5006432;28;20199;-69
2021/06/06 11:43:26;;;;;;;2.40;2.20;;;;;;;25.17;35.15;101514.75;5007906;28;20719;-65
2021/06/06 11:46:13;;;;;;;3.28;2.42;;;;;;;24.88;36.18;101518.13;5008123;28;20214;-65
2021/06/06 11:48:53;;;;;;;3.65;1.95;;;;;;;24.65;35.31;101518.91;5006262;28;20214;-65